Time;durP1;ratioP1;P1;durP2;ratioP2;P2;SDS_P1;SDS_P2;PMS_P1;PMS_P2;Temp;Humidity;BMP_temperature;BMP_pressure;BME280_temperature;BME280_humidity;BME280_pressure;Samples;Min_cycle;Max_cycle;Signal;HPM_P1;HPM_P2
2021/08/03 00:01:23;;;;;;;5.55;4.90;;;17.00;99.90;;;;;;5072441;28;20585;-66
2021/08/03 00:03:57;;;;;;;4.93;4.53;;;17.00;99.90;;;;;;5071843;28;20201;-66
2021/08/03 00:06:32;;;;;;;5.10;4.60;;;17.00;99.90;;;;;;5071870;28;20184;-66
2021/08/03 00:09:00;;;;;;;4.65;4.22;;;17.00;99.90;;;;;;5071972;28;20291;-65
2021/08/03 00:11:30;;;;;;;4.93;4.40;;;17.00;99.90;;;;;;5071964;28;20231;-67
2021/08/03 00:14:03;;;;;;;4.85;4.35;;;17.00;99.90;;;;;;5072063;28;20232;-66
2021/08/03 00:16:35;;;;;;;4.78;4.25;;;17.00;99.90;;;;;;5072079;28;20211;-66
2021/08/03 00:19:03;;;;;;;5.00;4.60;;;16.90;99.90;;;;;;5071847;28;20231;-66
2021/08/03 00:21:31;;;;;;;4.55;4.15;;;17.00;99.90;;;;;;5071738;28;20810;-66
2021/08/03 00:23:59;;;;;;;4.82;4.30;;;16.90;99.90;;;;;;5071757;28;20202;-65
2021/08/03 00:26:27;;;;;;;5.03;4.60;;;16.90;99.90;;;;;;5071445;28;20204;-66
2021/08/03 00:28:55;;;;;;;4.97;4.50;;;17.00;99.90;;;;;;5071728;28;20216;-66
2021/08/03 00:31:26;;;;;;;6.18;4.03;;;17.00;99.90;;;;;;5071808;28;20714;-66
2021/08/03 00:33:56;;;;;;;5.00;4.45;;;17.00;99.90;;;;;;5071898;28;20254;-66
2021/08/03 00:36:26;;;;;;;4.93;4.43;;;17.00;99.90;;;;;;5071862;28;20525;-68
2021/08/03 00:38:55;;;;;;;4.70;4.30;;;16.90;99.90;;;;;;5072489;28;20284;-65
2021/08/03 00:41:28;;;;;;;4.43;3.97;;;16.90;99.90;;;;;;5073492;28;20775;-65
2021/08/03 00:43:56;;;;;;;4.35;3.95;;;16.90;99.90;;;;;;5072018;28;20237;-66
2021/08/03 00:46:25;;;;;;;5.47;3.83;;;16.80;99.90;;;;;;5071885;28;20229;-65
2021/08/03 00:48:53;;;;;;;4.97;4.47;;;16.70;99.90;;;;;;5071453;28;20216;-65
2021/08/03 00:51:21;;;;;;;4.90;4.50;;;16.60;99.90;;;;;;5071424;28;20204;-65
2021/08/03 00:53:50;;;;;;;4.75;4.25;;;16.50;99.90;;;;;;5071689;28;20208;-66
2021/08/03 00:56:18;;;;;;;5.32;4.05;;;16.50;99.90;;;;;;5071673;28;20315;-65
2021/08/03 00:58:46;;;;;;;4.90;4.38;;;16.40;99.90;;;;;;5073418;28;20295;-65
2021/08/03 01:01:14;;;;;;;5.07;4.57;;;16.40;99.90;;;;;;5075331;28;20402;-66
2021/08/03 01:03:43;;;;;;;5.00;4.07;;;16.30;99.90;;;;;;5075343;28;20239;-65
2021/08/03 01:06:15;;;;;;;5.90;4.10;;;16.30;99.90;;;;;;5074978;28;20681;-63
2021/08/03 01:08:54;;;;;;;4.70;4.25;;;16.30;99.90;;;;;;5074979;28;20207;-65
2021/08/03 01:11:30;;;;;;;5.10;3.90;;;16.30;99.90;;;;;;5075042;28;20271;-64
2021/08/03 01:14:05;;;;;;;4.65;4.13;;;16.30;99.90;;;;;;5074739;28;20803;-65
2021/08/03 01:16:40;;;;;;;4.72;4.32;;;16.30;99.90;;;;;;5075062;28;20545;-65
2021/08/03 01:19:19;;;;;;;4.90;4.38;;;16.30;99.90;;;;;;5075048;28;20263;-65
2021/08/03 01:21:51;;;;;;;5.15;4.65;;;16.30;99.90;;;;;;5075043;28;20245;-66
2021/08/03 01:24:49;;;;;;;5.78;5.25;;;16.40;99.90;;;;;;5074430;28;20291;-66
2021/08/03 01:27:41;;;;;;;6.70;5.15;;;16.50;99.90;;;;;;5072411;28;20284;-65
2021/08/03 01:30:12;;;;;;;5.20;4.65;;;16.60;99.90;;;;;;5074762;28;20552;-65
2021/08/03 01:32:42;;;;;;;5.20;4.70;;;16.70;99.90;;;;;;5074516;28;20763;-65
2021/08/03 01:35:12;;;;;;;5.78;4.80;;;16.60;99.90;;;;;;5074777;28;20181;-67
2021/08/03 01:37:40;;;;;;;5.28;4.78;;;16.60;99.90;;;;;;5074502;28;20197;-66
2021/08/03 01:40:12;;;;;;;5.28;4.78;;;16.50;99.90;;;;;;5074185;28;20673;-65
2021/08/03 01:42:42;;;;;;;5.75;5.13;;;16.50;99.90;;;;;;5074219;28;20768;-66
2021/08/03 01:45:13;;;;;;;6.22;5.15;;;16.50;99.90;;;;;;5073979;28;20232;-65
2021/08/03 01:47:41;;;;;;;5.53;4.47;;;16.50;99.90;;;;;;5074470;28;20271;-65
2021/08/03 01:50:11;;;;;;;5.15;4.65;;;16.50;99.90;;;;;;5074270;28;20201;-65
2021/08/03 01:52:39;;;;;;;6.72;4.97;;;16.50;99.90;;;;;;5074332;28;20224;-64
2021/08/03 01:55:10;;;;;;;5.47;4.95;;;16.50;99.90;;;;;;5073855;28;20212;-65
2021/08/03 01:57:43;;;;;;;5.70;4.28;;;16.60;99.90;;;;;;5074330;28;20280;-65
2021/08/03 02:00:13;;;;;;;5.65;4.57;;;16.60;99.90;;;;;;5074138;28;20531;-64
2021/08/03 02:02:42;;;;;;;4.80;4.40;;;16.60;99.90;;;;;;5074286;28;20535;-64
2021/08/03 02:05:11;;;;;;;4.32;3.92;;;16.60;99.90;;;;;;5074207;28;20771;-66
2021/08/03 02:07:40;;;;;;;5.82;4.47;;;16.60;99.90;;;;;;5074190;28;20291;-65
2021/08/03 02:10:09;;;;;;;6.68;4.38;;;16.60;99.90;;;;;;5073244;28;20691;-65
2021/08/03 02:12:37;;;;;;;4.97;4.47;;;16.60;99.90;;;;;;5073985;28;20207;-66
2021/08/03 02:15:07;;;;;;;6.45;4.60;;;16.60;99.90;;;;;;5073696;28;20201;-66
2021/08/03 02:17:38;;;;;;;4.85;4.07;;;16.60;99.90;;;;;;5073541;28;20731;-66
2021/08/03 02:20:07;;;;;;;5.18;4.68;;;16.50;99.90;;;;;;5073830;28;20276;-66
2021/08/03 02:22:36;;;;;;;4.95;4.45;;;16.50;99.90;;;;;;5073474;28;20219;-66
2021/08/03 02:25:06;;;;;;;4.78;4.28;;;16.50;99.90;;;;;;5073542;28;20220;-64
2021/08/03 02:27:34;;;;;;;5.50;4.80;;;16.50;99.90;;;;;;5073699;28;20232;-66
2021/08/03 02:30:02;;;;;;;5.78;4.85;;;16.50;99.90;;;;;;5073454;28;20209;-66
2021/08/03 02:32:36;;;;;;;5.90;4.60;;;16.50;99.90;;;;;;5073245;28;20692;-65
2021/08/03 02:35:12;;;;;;;4.50;4.10;;;16.50;99.90;;;;;;5073222;28;20184;-65
2021/08/03 02:37:47;;;;;;;5.18;4.70;;;16.50;99.90;;;;;;5073111;28;20666;-65
2021/08/03 02:40:16;;;;;;;5.65;5.15;;;16.50;99.90;;;;;;5072963;28;20663;-65
2021/08/03 02:42:45;;;;;;;5.13;4.63;;;16.40;99.90;;;;;;5072985;28;20243;-66
2021/08/03 02:45:17;;;;;;;6.10;5.18;;;16.40;99.90;;;;;;5072668;28;20228;-65
2021/08/03 02:47:49;;;;;;;5.15;4.65;;;16.30;99.90;;;;;;5073332;28;20212;-65
2021/08/03 02:50:21;;;;;;;5.70;4.80;;;16.20;99.90;;;;;;5073068;28;20204;-65
2021/08/03 02:52:53;;;;;;;5.65;4.82;;;16.10;99.90;;;;;;5073206;28;20211;-66
2021/08/03 02:55:23;;;;;;;5.03;4.53;;;16.00;99.90;;;;;;5072889;28;20181;-65
2021/08/03 02:57:55;;;;;;;5.63;4.85;;;15.90;99.90;;;;;;5072679;28;20279;-65
2021/08/03 03:00:25;;;;;;;5.93;4.80;;;15.90;99.90;;;;;;5072557;28;20201;-66
2021/08/03 03:02:53;;;;;;;6.30;5.68;;;15.80;99.90;;;;;;5072582;28;20689;-66
2021/08/03 03:05:27;;;;;;;6.25;4.95;;;15.80;99.90;;;;;;5072830;28;20201;-65
2021/08/03 03:08:01;;;;;;;6.18;5.28;;;15.80;99.90;;;;;;5072703;28;20189;-65
2021/08/03 03:10:32;;;;;;;7.40;5.68;;;15.70;99.90;;;;;;5072362;28;20303;-66
2021/08/03 03:13:03;;;;;;;6.45;5.53;;;15.60;99.90;;;;;;5072789;28;20191;-65
2021/08/03 03:15:32;;;;;;;6.22;5.63;;;15.70;99.90;;;;;;5072523;28;20177;-66
2021/08/03 03:18:02;;;;;;;5.68;5.18;;;15.60;99.90;;;;;;5072689;28;20210;-65
2021/08/03 03:20:33;;;;;;;7.50;5.20;;;15.60;99.90;;;;;;5072150;28;20291;-65
2021/08/03 03:23:02;;;;;;;5.72;5.22;;;15.70;99.90;;;;;;5072667;28;20243;-67
2021/08/03 03:25:30;;;;;;;6.43;5.40;;;15.60;99.90;;;;;;5072093;28;20211;-65
2021/08/03 03:28:01;;;;;;;6.35;5.65;;;15.60;99.90;;;;;;5072168;28;20575;-65
2021/08/03 03:30:30;;;;;;;6.20;5.60;;;15.60;99.90;;;;;;5072073;28;20205;-65
2021/08/03 03:33:02;;;;;;;6.82;5.45;;;15.60;99.90;;;;;;5072518;28;20205;-66
2021/08/03 03:35:33;;;;;;;5.97;5.18;;;15.60;99.90;;;;;;5072508;28;20271;-65
2021/08/03 03:38:02;;;;;;;6.40;5.63;;;15.70;99.90;;;;;;5072077;28;20617;-65
2021/08/03 03:40:30;;;;;;;7.13;5.50;;;15.70;99.90;;;;;;5072277;28;20299;-65
2021/08/03 03:42:59;;;;;;;6.82;5.60;;;15.70;99.90;;;;;;5072095;28;20197;-65
2021/08/03 03:45:29;;;;;;;6.78;5.88;;;15.70;99.90;;;;;;5071906;28;20646;-66
2021/08/03 03:48:00;;;;;;;7.60;5.57;;;15.80;99.90;;;;;;5072646;28;20244;-65
2021/08/03 03:50:33;;;;;;;6.78;5.40;;;15.80;99.90;;;;;;5072229;28;20236;-65
2021/08/03 03:53:07;;;;;;;6.15;5.55;;;15.80;99.90;;;;;;5072275;28;20280;-65
2021/08/03 03:55:35;;;;;;;6.50;5.38;;;15.80;99.90;;;;;;5072275;28;20185;-65
2021/08/03 03:58:04;;;;;;;5.85;5.13;;;15.80;99.90;;;;;;5072141;28;20196;-65
2021/08/03 04:00:36;;;;;;;7.10;5.68;;;15.90;99.90;;;;;;5071731;28;20207;-67
2021/08/03 04:03:06;;;;;;;6.75;5.28;;;15.90;99.90;;;;;;5071879;28;20252;-65
2021/08/03 04:05:41;;;;;;;5.63;5.07;;;15.90;99.90;;;;;;5072159;28;20228;-66
2021/08/03 04:08:09;;;;;;;5.88;5.35;;;15.90;99.90;;;;;;5071933;28;20188;-65
2021/08/03 04:10:38;;;;;;;6.40;5.25;;;15.90;99.90;;;;;;5071915;28;20298;-65
2021/08/03 04:13:07;;;;;;;7.00;6.03;;;16.00;99.90;;;;;;5072143;28;20243;-64
2021/08/03 04:15:35;;;;;;;6.68;5.70;;;16.00;99.90;;;;;;5071995;28;20205;-65
2021/08/03 04:18:04;;;;;;;6.80;6.10;;;16.10;99.90;;;;;;5072019;28;20201;-66
2021/08/03 04:20:32;;;;;;;6.97;6.18;;;16.10;99.90;;;;;;5072037;28;20193;-65
2021/08/03 04:23:01;;;;;;;7.05;6.35;;;16.10;99.90;;;;;;5072088;28;20200;-65
2021/08/03 04:25:29;;;;;;;7.03;6.15;;;16.20;99.90;;;;;;5071779;28;20318;-65
2021/08/03 04:27:57;;;;;;;7.65;5.65;;;16.20;99.90;;;;;;5072444;28;20207;-65
2021/08/03 04:30:25;;;;;;;7.40;6.00;;;16.30;99.90;;;;;;5072182;28;20230;-66
2021/08/03 04:32:52;;;;;;;7.00;6.35;;;16.30;99.90;;;;;;5074658;28;20232;-66
2021/08/03 04:35:20;;;;;;;7.20;6.25;;;16.30;99.90;;;;;;5076447;28;20211;-65
2021/08/03 04:37:49;;;;;;;8.35;6.25;;;16.40;99.90;;;;;;5076310;28;20201;-65
2021/08/03 04:40:21;;;;;;;7.32;6.63;;;16.40;99.90;;;;;;5075960;28;20235;-65
2021/08/03 04:42:50;;;;;;;6.82;6.13;;;16.50;99.90;;;;;;5076368;28;20251;-66
2021/08/03 04:45:18;;;;;;;7.05;6.35;;;16.60;99.90;;;;;;5075611;28;20272;-65
2021/08/03 04:47:47;;;;;;;8.82;7.20;;;16.70;99.90;;;;;;5076185;28;20196;-64
2021/08/03 04:50:17;;;;;;;7.97;7.03;;;16.70;99.90;;;;;;5075978;28;20303;-65
2021/08/03 04:52:45;;;;;;;8.45;7.22;;;16.80;99.90;;;;;;5075735;28;20576;-65
2021/08/03 04:55:13;;;;;;;7.90;7.10;;;16.90;99.90;;;;;;5075577;28;20303;-66
2021/08/03 04:57:43;;;;;;;8.80;7.47;;;17.00;99.90;;;;;;5075595;28;20205;-65
2021/08/03 05:00:12;;;;;;;7.30;6.53;;;17.10;99.90;;;;;;5075844;28;20291;-65
2021/08/03 05:02:41;;;;;;;7.22;6.53;;;17.10;99.90;;;;;;5075922;28;20235;-65
2021/08/03 05:05:11;;;;;;;8.05;6.88;;;17.00;99.90;;;;;;5075385;28;20692;-65
2021/08/03 05:07:39;;;;;;;8.00;6.90;;;17.00;99.90;;;;;;5075088;28;20280;-65
2021/08/03 05:10:09;;;;;;;7.03;6.38;;;17.00;99.90;;;;;;5078491;28;20238;-66
2021/08/03 05:12:37;;;;;;;8.30;6.32;;;17.10;99.90;;;;;;5080473;28;20201;-66
2021/08/03 05:15:09;;;;;;;6.90;6.28;;;17.10;99.90;;;;;;5078396;28;20232;-65
2021/08/03 05:17:36;;;;;;;6.95;6.25;;;17.40;99.90;;;;;;5076083;28;20203;-65
2021/08/03 05:20:05;;;;;;;8.20;6.07;;;17.70;99.90;;;;;;5075653;28;20197;-65
2021/08/03 05:22:33;;;;;;;7.30;6.00;;;18.00;99.90;;;;;;5075530;28;20205;-66
2021/08/03 05:25:01;;;;;;;6.82;5.70;;;18.20;99.90;;;;;;5075686;28;20211;-65
2021/08/03 05:27:29;;;;;;;7.25;5.90;;;18.10;99.90;;;;;;5075189;28;20216;-65
2021/08/03 05:29:57;;;;;;;9.43;6.05;;;18.20;99.90;;;;;;5075151;28;20207;-66
2021/08/03 05:32:26;;;;;;;7.38;5.50;;;18.10;99.90;;;;;;5075061;28;20212;-65
2021/08/03 05:34:54;;;;;;;7.68;6.05;;;18.20;99.90;;;;;;5075418;28;20691;-66
2021/08/03 05:37:22;;;;;;;6.60;5.68;;;18.20;99.90;;;;;;5075041;28;20239;-65
2021/08/03 05:39:50;;;;;;;8.02;5.82;;;18.30;99.90;;;;;;5074843;28;20854;-67
2021/08/03 05:42:18;;;;;;;9.90;5.43;;;18.40;99.90;;;;;;5075133;28;20207;-64
2021/08/03 05:44:45;;;;;;;6.30;5.47;;;18.50;99.90;;;;;;5073938;28;20315;-66
2021/08/03 05:47:15;;;;;;;5.88;5.00;;;18.60;99.90;;;;;;5074793;28;20629;-65
2021/08/03 05:49:45;;;;;;;7.90;5.30;;;18.70;99.90;;;;;;5075404;28;20283;-67
2021/08/03 05:52:12;;;;;;;6.18;4.95;;;18.70;99.90;;;;;;5074727;28;20220;-65
2021/08/03 05:54:40;;;;;;;7.00;5.57;;;18.80;99.90;;;;;;5074958;28;20200;-66
2021/08/03 05:57:08;;;;;;;5.40;4.90;;;18.70;99.90;;;;;;5074846;28;20201;-64
2021/08/03 05:59:36;;;;;;;6.53;4.72;;;18.80;99.90;;;;;;5074520;28;20232;-66
2021/08/03 06:02:04;;;;;;;6.22;5.00;;;18.90;99.90;;;;;;5074812;28;20287;-66
2021/08/03 06:04:32;;;;;;;6.15;4.80;;;18.90;99.90;;;;;;5074831;28;20204;-66
2021/08/03 06:07:04;;;;;;;4.88;4.38;;;19.00;99.90;;;;;;5074685;28;20694;-66
2021/08/03 06:09:36;;;;;;;7.85;4.63;;;19.00;99.90;;;;;;5074566;28;20221;-65
2021/08/03 06:12:05;;;;;;;5.45;4.95;;;19.00;99.90;;;;;;5074119;28;20702;-66
2021/08/03 06:14:36;;;;;;;5.32;4.10;;;18.90;99.90;;;;;;5074224;28;20751;-65
2021/08/03 06:17:07;;;;;;;4.60;4.20;;;18.80;99.90;;;;;;5074615;28;20185;-65
2021/08/03 06:19:42;;;;;;;5.57;4.35;;;18.90;99.90;;;;;;5074178;28;20196;-67
2021/08/03 06:22:12;;;;;;;5.65;4.22;;;19.00;99.90;;;;;;5074527;28;20559;-65
2021/08/03 06:24:41;;;;;;;5.82;4.40;;;19.30;99.90;;;;;;5074028;28;20197;-65
2021/08/03 06:27:09;;;;;;;4.90;4.40;;;19.30;99.90;;;;;;5073623;28;20197;-65
2021/08/03 06:29:38;;;;;;;5.60;4.40;;;19.50;99.90;;;;;;5073836;28;20810;-65
2021/08/03 06:32:08;;;;;;;7.18;4.88;;;19.50;99.90;;;;;;5073456;28;20633;-65
2021/08/03 06:34:42;;;;;;;5.93;4.47;;;19.60;99.90;;;;;;5073400;28;20204;-65
2021/08/03 06:37:12;;;;;;;6.75;5.00;;;19.70;99.90;;;;;;5073135;28;20633;-66
2021/08/03 06:39:40;;;;;;;4.70;3.92;;;19.90;99.90;;;;;;5073378;28;20182;-66
2021/08/03 06:42:17;;;;;;;5.65;5.15;;;19.70;99.90;;;;;;5072885;28;20233;-65
2021/08/03 06:44:50;;;;;;;5.47;4.60;;;19.50;99.90;;;;;;5072695;28;20224;-65
2021/08/03 06:47:23;;;;;;;5.88;4.55;;;19.40;99.90;;;;;;5073426;28;20196;-65
2021/08/03 06:49:53;;;;;;;7.35;4.80;;;19.40;99.90;;;;;;5073288;28;20197;-65
2021/08/03 06:52:23;;;;;;;5.53;4.60;;;19.30;99.90;;;;;;5073117;28;20208;-65
2021/08/03 06:55:01;;;;;;;5.82;4.78;;;19.30;99.90;;;;;;5073207;28;20200;-65
2021/08/03 06:57:32;;;;;;;6.72;5.22;;;19.30;99.90;;;;;;5072829;28;20191;-65
2021/08/03 07:00:05;;;;;;;6.32;5.45;;;19.40;99.90;;;;;;5072673;28;20279;-65
2021/08/03 07:02:37;;;;;;;6.32;5.70;;;19.40;99.90;;;;;;5073018;28;20209;-64
2021/08/03 07:05:10;;;;;;;5.97;5.40;;;19.40;99.90;;;;;;5072887;28;20189;-65
2021/08/03 07:07:39;;;;;;;6.90;6.20;;;19.40;99.90;;;;;;5072587;28;20608;-66
2021/08/03 07:10:08;;;;;;;5.80;5.30;;;19.40;99.90;;;;;;5072596;28;20715;-65
2021/08/03 07:12:36;;;;;;;7.40;4.93;;;19.50;99.90;;;;;;5072556;28;20718;-65
2021/08/03 07:15:06;;;;;;;4.63;4.22;;;19.40;99.90;;;;;;5072866;28;20216;-66
2021/08/03 07:17:36;;;;;;;4.85;4.45;;;19.50;99.90;;;;;;5072706;28;20217;-67
2021/08/03 07:20:04;;;;;;;6.05;5.10;;;19.50;99.90;;;;;;5072583;28;20787;-64
2021/08/03 07:22:34;;;;;;;4.78;4.28;;;19.60;99.90;;;;;;5072583;28;20197;-66
2021/08/03 07:25:04;;;;;;;5.65;5.00;;;19.80;99.90;;;;;;5072455;28;20239;-66
2021/08/03 07:27:32;;;;;;;6.75;4.90;;;19.90;99.90;;;;;;5072521;28;20276;-65
2021/08/03 07:30:00;;;;;;;5.60;5.10;;;19.90;99.90;;;;;;5072360;28;20201;-65
2021/08/03 07:32:33;;;;;;;4.43;4.03;;;20.00;99.90;;;;;;5072084;28;20763;-65
2021/08/03 07:35:02;;;;;;;4.63;4.20;;;19.90;99.90;;;;;;5072366;28;20301;-66
2021/08/03 07:37:31;;;;;;;4.53;4.13;;;19.90;99.90;;;;;;5071924;28;20239;-66
2021/08/03 07:39:58;;;;;;;5.93;5.30;;;19.90;99.90;;;;;;5072254;28;20192;-66
2021/08/03 07:42:28;;;;;;;6.05;5.10;;;19.90;99.90;;;;;;5072218;28;20250;-66
2021/08/03 07:44:55;;;;;;;5.03;4.57;;;20.00;99.90;;;;;;5071841;28;20324;-65
2021/08/03 07:47:23;;;;;;;6.50;5.57;;;20.20;99.90;;;;;;5072354;28;20205;-66
2021/08/03 07:49:52;;;;;;;6.63;5.93;;;20.40;99.90;;;;;;5072264;28;20280;-64
2021/08/03 07:52:21;;;;;;;7.95;7.20;;;20.70;99.90;;;;;;5072233;28;20333;-65
2021/08/03 07:54:49;;;;;;;8.98;8.15;;;20.90;99.90;;;;;;5072105;28;20590;-66
2021/08/03 07:57:17;;;;;;;8.95;7.72;;;20.90;99.90;;;;;;5072105;28;20623;-65
2021/08/03 07:59:46;;;;;;;10.60;9.15;;;21.00;99.90;;;;;;5072102;28;20201;-65
2021/08/03 08:02:14;;;;;;;12.02;7.97;;;21.10;99.90;;;;;;5072127;28;20296;-66
2021/08/03 08:04:42;;;;;;;11.40;10.40;;;21.20;99.90;;;;;;5072226;28;20535;-66
2021/08/03 08:07:10;;;;;;;12.32;11.23;;;21.20;99.90;;;;;;5074514;28;20288;-67
2021/08/03 08:09:38;;;;;;;12.43;9.98;;;21.10;99.90;;;;;;5078556;28;20645;-66
2021/08/03 08:12:06;;;;;;;9.63;8.82;;;21.10;99.90;;;;;;5078466;28;20311;-66
2021/08/03 08:14:34;;;;;;;6.70;6.10;;;21.10;99.90;;;;;;5078567;28;20212;-65
2021/08/03 08:17:04;;;;;;;5.28;4.88;;;21.30;99.90;;;;;;5078466;28;20594;-66
2021/08/03 08:19:32;;;;;;;5.03;4.53;;;21.10;99.90;;;;;;5078290;28;20243;-66
2021/08/03 08:21:59;;;;;;;4.68;4.25;;;21.40;99.90;;;;;;5078513;28;20224;-65
2021/08/03 08:24:27;;;;;;;5.35;4.85;;;21.50;99.90;;;;;;5078396;28;20207;-65
2021/08/03 08:26:55;;;;;;;4.93;4.40;;;21.60;99.90;;;;;;5078144;28;20675;-65
2021/08/03 08:29:23;;;;;;;5.30;4.90;;;21.70;99.90;;;;;;5078480;28;20287;-66
2021/08/03 08:31:51;;;;;;;6.28;5.75;;;21.70;99.90;;;;;;5078485;28;20252;-66
2021/08/03 08:34:20;;;;;;;7.00;6.30;;;21.70;99.90;;;;;;5078483;28;20200;-65
2021/08/03 08:36:50;;;;;;;5.63;5.13;;;21.70;99.90;;;;;;5078072;28;20748;-65
2021/08/03 08:39:18;;;;;;;7.13;4.47;;;21.60;99.90;;;;;;5078254;28;20204;-64
2021/08/03 08:41:46;;;;;;;5.72;4.97;;;21.70;99.90;;;;;;5078146;28;20254;-66
2021/08/03 08:44:14;;;;;;;4.82;4.45;;;21.70;99.90;;;;;;5077789;28;20724;-65
2021/08/03 08:46:42;;;;;;;5.63;5.13;;;21.60;99.90;;;;;;5078316;28;20289;-65
2021/08/03 08:49:10;;;;;;;4.53;4.13;;;21.60;99.90;;;;;;5077908;28;20207;-66
2021/08/03 08:51:41;;;;;;;4.88;4.40;;;21.50;99.90;;;;;;5077366;28;20850;-65
2021/08/03 08:54:08;;;;;;;4.55;4.15;;;21.50;99.90;;;;;;5077766;28;20640;-65
2021/08/03 08:56:36;;;;;;;5.00;4.60;;;21.60;99.90;;;;;;5077829;28;20763;-65
2021/08/03 08:59:04;;;;;;;5.22;4.30;;;21.50;99.90;;;;;;5077698;28;20204;-65
2021/08/03 09:01:32;;;;;;;5.30;4.60;;;21.50;99.90;;;;;;5078267;28;20197;-65
2021/08/03 09:04:00;;;;;;;4.85;4.45;;;21.60;99.90;;;;;;5078163;28;20211;-66
2021/08/03 09:06:28;;;;;;;4.05;3.75;;;21.70;99.90;;;;;;5078020;28;20200;-66
2021/08/03 09:08:57;;;;;;;7.03;4.55;;;21.80;99.90;;;;;;5077871;28;20653;-65
2021/08/03 09:11:25;;;;;;;4.45;4.10;;;21.80;99.90;;;;;;5077955;28;20210;-65
2021/08/03 09:13:57;;;;;;;4.57;3.67;;;21.90;99.90;;;;;;5077635;28;20226;-65
2021/08/03 09:16:27;;;;;;;4.72;3.90;;;22.10;99.90;;;;;;5077673;28;20219;-65
2021/08/03 09:18:57;;;;;;;4.53;4.00;;;21.90;99.90;;;;;;5075407;28;20193;-65
2021/08/03 09:21:27;;;;;;;4.35;3.95;;;21.80;99.90;;;;;;5074744;28;20209;-66
2021/08/03 09:23:58;;;;;;;3.80;3.50;;;21.60;99.90;;;;;;5074793;28;20295;-65
2021/08/03 09:26:43;;;;;;;3.78;3.47;;;21.70;99.90;;;;;;5074259;28;20548;-65
2021/08/03 09:29:13;;;;;;;4.13;3.47;;;21.90;99.90;;;;;;5074264;28;20251;-66
2021/08/03 09:31:50;;;;;;;3.72;3.40;;;21.80;99.90;;;;;;5074710;28;20304;-65
2021/08/03 09:34:18;;;;;;;4.50;4.10;;;21.80;99.90;;;;;;5074798;28;20337;-65
2021/08/03 09:36:49;;;;;;;4.25;3.85;;;21.50;99.90;;;;;;5074641;28;20330;-64
2021/08/03 09:39:39;;;;;;;4.53;4.13;;;21.40;99.90;;;;;;5076862;28;20189;-65
2021/08/03 09:42:09;;;;;;;3.60;3.30;;;21.30;99.90;;;;;;5078535;28;20213;-64
2021/08/03 09:44:45;;;;;;;3.53;3.25;;;21.40;99.90;;;;;;5076188;28;20248;-65
2021/08/03 09:47:12;;;;;;;3.10;2.85;;;21.50;99.90;;;;;;5074413;28;20191;-65
2021/08/03 09:49:42;;;;;;;5.15;3.17;;;21.50;99.90;;;;;;5074208;28;20240;-66
2021/08/03 09:52:12;;;;;;;3.72;3.42;;;21.40;99.90;;;;;;5074724;28;20242;-64
2021/08/03 09:54:42;;;;;;;3.75;3.45;;;21.50;99.90;;;;;;5074184;28;20292;-66
2021/08/03 09:57:21;;;;;;;5.15;3.88;;;21.50;99.90;;;;;;5073519;28;20747;-65
2021/08/03 09:59:50;;;;;;;3.40;3.10;;;21.40;99.90;;;;;;5073981;28;20279;-65
2021/08/03 10:02:20;;;;;;;3.88;3.45;;;21.40;99.90;;;;;;5074691;28;20199;-65
2021/08/03 10:04:49;;;;;;;3.90;3.60;;;21.70;99.90;;;;;;5074388;28;20226;-65
2021/08/03 10:07:18;;;;;;;3.30;3.00;;;21.90;99.90;;;;;;5074042;28;20205;-65
2021/08/03 10:09:49;;;;;;;3.80;3.33;;;22.10;99.90;;;;;;5073942;28;20215;-65
2021/08/03 10:12:17;;;;;;;4.22;3.33;;;22.10;99.90;;;;;;5073770;28;20272;-66
2021/08/03 10:14:46;;;;;;;5.07;3.15;;;22.10;99.90;;;;;;5073659;28;20652;-65
2021/08/03 10:17:15;;;;;;;3.65;3.35;;;21.80;99.90;;;;;;5073747;28;20207;-65
2021/08/03 10:19:44;;;;;;;4.47;4.07;;;21.80;99.90;;;;;;5073859;28;20231;-65
2021/08/03 10:22:18;;;;;;;3.83;3.42;;;21.70;99.90;;;;;;5073752;28;20201;-64
2021/08/03 10:25:04;;;;;;;6.35;3.53;;;21.80;99.90;;;;;;5073650;28;20180;-66
2021/08/03 10:27:43;;;;;;;3.70;3.40;;;21.80;99.90;;;;;;5073401;28;20185;-66
2021/08/03 10:30:37;;;;;;;4.10;3.70;;;21.90;99.90;;;;;;5073061;28;20873;-65
2021/08/03 10:33:10;;;;;;;3.20;2.92;;;21.90;99.90;;;;;;5073061;28;20208;-65
2021/08/03 10:35:42;;;;;;;3.67;3.30;;;22.10;99.90;;;;;;5073468;28;20197;-65
2021/08/03 10:38:15;;;;;;;3.58;3.13;;;22.30;99.90;;;;;;5053325;28;20274;-65
2021/08/03 10:41:06;;;;;;;3.80;3.50;;;22.50;99.90;;;;;;5053111;28;20186;-65
2021/08/03 10:43:52;;;;;;;3.58;3.28;;;22.40;99.90;;;;;;5052894;28;20874;-65
2021/08/03 10:46:41;;;;;;;3.97;2.97;;;22.60;99.90;;;;;;5053031;28;20633;-67
2021/08/03 10:49:10;;;;;;;3.33;3.13;;;22.90;99.90;;;;;;5053158;28;20232;-65
2021/08/03 10:51:39;;;;;;;3.35;3.05;;;23.00;99.90;;;;;;5052921;28;20314;-65
2021/08/03 10:54:11;;;;;;;5.60;3.20;;;23.10;99.90;;;;;;5052967;28;20219;-66
2021/08/03 10:57:13;;;;;;;3.58;3.28;;;23.00;99.90;;;;;;5052880;28;20289;-65
2021/08/03 10:59:42;;;;;;;3.28;2.97;;;23.00;99.90;;;;;;5041556;28;20201;-66
2021/08/03 11:02:30;;;;;;;3.40;3.13;;;23.10;99.90;;;;;;5052974;28;20240;-66
2021/08/03 11:04:59;;;;;;;3.30;3.00;;;23.10;99.90;;;;;;5052317;28;20218;-66
2021/08/03 11:07:31;;;;;;;3.67;2.72;;;23.20;99.90;;;;;;5052792;28;20251;-66
2021/08/03 11:10:00;;;;;;;3.10;2.80;;;23.40;99.90;;;;;;5052706;28;20225;-65
2021/08/03 11:12:40;;;;;;;3.10;2.70;;;23.60;99.90;;;;;;5052553;28;20292;-67
2021/08/03 11:15:38;;;;;;;2.90;2.70;;;23.70;99.90;;;;;;5052456;28;20213;-66
2021/08/03 11:18:09;;;;;;;2.88;2.67;;;23.80;99.90;;;;;;5052646;28;20235;-66
2021/08/03 11:21:07;;;;;;;3.58;2.95;;;23.70;99.90;;;;;;5052699;28;20245;-66
2021/08/03 11:23:56;;;;;;;2.83;2.63;;;23.40;99.90;;;;;;4990680;28;20274;-65
2021/08/03 11:26:25;;;;;;;3.15;2.90;;;23.60;99.90;;;;;;5047859;28;20244;-65
2021/08/03 11:29:01;;;;;;;3.35;3.05;;;23.50;99.90;;;;;;5052252;28;20239;-65
2021/08/03 11:31:53;;;;;;;3.60;3.28;;;23.50;99.90;;;;;;5052220;28;20216;-66
2021/08/03 11:34:27;;;;;;;3.20;3.00;;;23.50;99.90;;;;;;5051912;28;20296;-65
2021/08/03 11:36:58;;;;;;;3.40;3.10;;;23.40;99.90;;;;;;5062103;28;20304;-64
2021/08/03 11:39:27;;;;;;;3.80;3.40;;;23.30;99.90;;;;;;5072218;28;20189;-64
2021/08/03 11:41:55;;;;;;;4.10;3.65;;;23.40;99.90;;;;;;5071478;28;20236;-64
2021/08/03 11:44:25;;;;;;;3.83;3.50;;;23.40;99.90;;;;;;5071549;28;20796;-65
2021/08/03 11:46:55;;;;;;;2.95;2.75;;;23.40;99.90;;;;;;5071796;28;20203;-66
2021/08/03 11:49:32;;;;;;;3.80;3.45;;;23.70;99.90;;;;;;5072119;28;20209;-65
2021/08/03 11:52:18;;;;;;;3.40;3.10;;;23.80;99.90;;;;;;5072139;28;20191;-65
2021/08/03 11:54:49;;;;;;;5.00;3.40;;;23.90;99.90;;;;;;5072036;28;20205;-65
2021/08/03 11:57:23;;;;;;;3.58;3.28;;;24.00;99.90;;;;;;5071658;28;20199;-65
2021/08/03 12:00:10;;;;;;;3.22;3.00;;;24.20;99.90;;;;;;5071999;28;20267;-65
2021/08/03 12:02:39;;;;;;;3.97;3.55;;;24.30;99.90;;;;;;5071977;28;20185;-66
2021/08/03 12:05:14;;;;;;;4.13;3.45;;;24.30;99.90;;;;;;5071958;28;20176;-65
2021/08/03 12:07:54;;;;;;;3.67;3.25;;;24.30;99.90;;;;;;5071772;28;20668;-65
2021/08/03 12:10:25;;;;;;;4.00;3.65;;;24.40;99.90;;;;;;5072157;28;20293;-66
2021/08/03 12:12:53;;;;;;;3.42;3.22;;;24.30;99.90;;;;;;5071640;28;20280;-65
2021/08/03 12:15:24;;;;;;;4.03;3.35;;;24.30;99.90;;;;;;5071544;28;20315;-65
2021/08/03 12:18:04;;;;;;;3.88;3.50;;;24.50;99.90;;;;;;5071616;28;20284;-66
2021/08/03 12:20:39;;;;;;;3.47;3.13;;;24.50;99.90;;;;;;5071762;28;20291;-65
2021/08/03 12:23:21;;;;;;;5.07;3.17;;;24.60;99.90;;;;;;5071870;28;20277;-65
2021/08/03 12:25:53;;;;;;;3.88;3.58;;;24.60;99.90;;;;;;5071738;28;20280;-65
2021/08/03 12:28:36;;;;;;;3.70;3.28;;;24.60;99.90;;;;;;5071546;28;20663;-65
2021/08/03 12:31:39;;;;;;;3.40;3.10;;;24.70;99.90;;;;;;5071716;28;20238;-66
2021/08/03 12:34:12;;;;;;;3.20;2.92;;;24.50;99.90;;;;;;5071670;28;20274;-66
2021/08/03 12:36:45;;;;;;;3.88;3.58;;;24.70;99.90;;;;;;5071422;28;20196;-65
2021/08/03 12:39:23;;;;;;;2.90;2.70;;;24.50;99.90;;;;;;5071277;28;20205;-66
2021/08/03 12:42:06;;;;;;;3.00;2.72;;;24.70;99.90;;;;;;5071190;28;20712;-66
2021/08/03 12:44:36;;;;;;;3.40;3.10;;;25.00;99.90;;;;;;5071105;28;20224;-64
2021/08/03 12:47:10;;;;;;;3.78;3.40;;;25.00;99.90;;;;;;5071761;28;20610;-65
2021/08/03 12:49:40;;;;;;;3.47;3.17;;;25.20;99.90;;;;;;5071592;28;20249;-66
2021/08/03 12:52:11;;;;;;;3.33;3.10;;;25.00;99.90;;;;;;5071765;28;20232;-66
2021/08/03 12:54:42;;;;;;;3.97;2.50;;;24.90;99.90;;;;;;5073043;28;20533;-66
2021/08/03 12:57:12;;;;;;;3.30;3.00;;;24.80;99.90;;;;;;5075375;28;20188;-66
2021/08/03 12:59:42;;;;;;;3.83;3.22;;;24.90;99.90;;;;;;5075246;28;20288;-66
2021/08/03 13:02:14;;;;;;;2.85;2.63;;;24.90;99.90;;;;;;5075299;28;20185;-66
2021/08/03 13:04:43;;;;;;;2.88;2.63;;;24.80;99.90;;;;;;5075196;28;20218;-65
2021/08/03 13:07:12;;;;;;;4.05;2.97;;;24.80;99.90;;;;;;5074648;28;20200;-67